Time;durP1;ratioP1;P1;durP2;ratioP2;P2;SDS_P1;SDS_P2;PMS_P1;PMS_P2;Temp;Humidity;BMP_temperature;BMP_pressure;BME280_temperature;BME280_humidity;BME280_pressure;Samples;Min_cycle;Max_cycle;Signal;HPM_P1;HPM_P2
2023/12/24 00:00:37;;;;;;;1.40;0.80;;;;;;;2.62;100.00;99069.71;180559;1251;59648;-89
2023/12/24 00:05:01;;;;;;;1.20;1.10;;;;;;;2.63;100.00;99077.91;180050;1252;45999;-87
2023/12/24 00:09:04;;;;;;;3.40;1.20;;;;;;;2.60;100.00;99078.63;181063;1251;45389;-85
2023/12/24 00:13:08;;;;;;;3.60;1.70;;;;;;;2.59;100.00;99080.63;180462;1254;46028;-88
2023/12/24 00:17:12;;;;;;;2.90;2.20;;;;;;;2.62;100.00;99079.71;180529;1251;45983;-87
2023/12/24 00:21:16;;;;;;;1.00;0.90;;;;;;;2.63;100.00;99076.48;180688;1254;59749;-87
2023/12/24 00:25:19;;;;;;;1.60;1.50;;;;;;;2.64;100.00;99080.83;180542;1251;46222;-87
2023/12/24 00:29:23;;;;;;;0.80;0.80;;;;;;;2.61;100.00;99084.15;180193;1256;46067;-82
2023/12/24 00:33:26;;;;;;;1.60;1.10;;;;;;;2.60;100.00;99086.35;179777;1252;46305;-86
2023/12/24 00:37:30;;;;;;;1.50;1.10;;;;;;;2.56;100.00;99092.21;179572;1253;46580;-87
2023/12/24 00:41:33;;;;;;;3.40;1.60;;;;;;;2.53;100.00;99091.00;180691;1251;57972;-86
2023/12/24 00:45:37;;;;;;;5.40;2.10;;;;;;;2.49;100.00;99094.40;181447;1253;45964;-86
2023/12/24 00:54:06;;;;;;;5.90;1.70;;;;;;;2.48;100.00;99101.48;180322;1257;45898;-89
2023/12/24 00:58:09;;;;;;;2.40;1.40;;;;;;;2.48;100.00;99095.68;179693;1259;46026;-85
2023/12/24 01:02:13;;;;;;;1.90;1.20;;;;;;;2.50;100.00;99097.19;179736;1257;60088;-88
2023/12/24 01:06:16;;;;;;;2.10;0.80;;;;;;;2.50;100.00;99102.03;178936;1257;46102;-86
2023/12/24 01:10:20;;;;;;;3.00;1.30;;;;;;;2.53;100.00;99104.46;179700;1257;44196;-88
2023/12/24 01:14:23;;;;;;;1.00;0.80;;;;;;;2.49;100.00;99104.39;180040;1258;46092;-87
2023/12/24 01:18:27;;;;;;;1.10;1.10;;;;;;;2.49;100.00;99107.91;180216;1257;45895;-87
2023/12/24 01:22:30;;;;;;;3.70;1.40;;;;;;;2.55;100.00;99108.04;180515;1257;60528;-85
2023/12/24 01:26:36;;;;;;;1.90;0.90;;;;;;;2.54;100.00;99110.73;181184;1257;44883;-85
2023/12/24 01:30:57;;;;;;;2.30;1.30;;;;;;;2.52;100.00;99112.61;180677;1256;93345;-64
2023/12/24 01:40:47;;;;;;;3.80;2.30;;;;;;;2.57;100.00;99115.39;179871;1259;45946;-66
2023/12/24 01:44:51;;;;;;;2.10;1.50;;;;;;;2.63;100.00;99112.39;179916;1260;58438;-65
2023/12/24 01:48:56;;;;;;;4.10;0.70;;;;;;;2.70;100.00;99107.02;179809;1259;46052;-64
2023/12/24 01:53:05;;;;;;;1.80;0.90;;;;;;;2.71;100.00;99094.66;180010;1260;46150;-65
2023/12/24 01:57:10;;;;;;;1.80;0.90;;;;;;;2.67;100.00;99102.65;179860;1260;44725;-64
2023/12/24 02:01:14;;;;;;;0.90;0.70;;;;;;;2.55;100.00;99101.52;179955;1261;44667;-65
2023/12/24 02:05:18;;;;;;;2.50;1.00;;;;;;;2.47;100.00;99104.38;179813;1260;58956;-66
2023/12/24 02:09:21;;;;;;;4.30;2.40;;;;;;;2.41;100.00;99105.26;179817;1259;46423;-65
2023/12/24 02:13:26;;;;;;;3.40;1.40;;;;;;;2.38;100.00;99103.36;180206;1260;45952;-65
2023/12/24 02:17:33;;;;;;;2.50;1.40;;;;;;;2.39;100.00;99109.63;180189;1259;44073;-64
2023/12/24 02:21:36;;;;;;;0.90;0.90;;;;;;;2.41;100.00;99102.81;179800;1260;44697;-66
2023/12/24 02:25:40;;;;;;;1.00;0.60;;;;;;;2.42;100.00;99102.02;179828;1260;58525;-66
2023/12/24 02:29:50;;;;;;;2.20;1.20;;;;;;;2.44;100.00;99101.05;179836;1260;45913;-66
2023/12/24 02:33:58;;;;;;;1.60;1.00;;;;;;;2.45;100.00;99097.16;179761;1259;44643;-66
2023/12/24 02:38:02;;;;;;;0.50;0.50;;;;;;;2.45;100.00;99085.45;179918;1260;43712;-66
2023/12/24 02:42:11;;;;;;;1.10;0.90;;;;;;;2.46;100.00;99084.31;179823;1259;43783;-66
2023/12/24 02:46:15;;;;;;;0.50;0.40;;;;;;;2.48;100.00;99087.17;179879;1261;58939;-66
2023/12/24 02:50:19;;;;;;;0.70;0.70;;;;;;;2.50;100.00;99086.47;179870;1259;43768;-66
2023/12/24 02:54:23;;;;;;;0.70;0.70;;;;;;;2.51;100.00;99080.25;179844;1261;43751;-67
2023/12/24 02:58:28;;;;;;;1.30;0.80;;;;;;;2.52;100.00;99080.42;179800;1261;43801;-66
2023/12/24 03:02:35;;;;;;;0.70;0.60;;;;;;;2.51;100.00;99082.23;179708;1259;46205;-67
2023/12/24 03:06:39;;;;;;;7.00;6.40;;;;;;;2.48;100.00;99080.98;179670;1261;58763;-69
2023/12/24 03:15:46;;;;;;;0.90;0.90;;;;;;;2.47;100.00;99075.69;179013;1259;43803;-69
2023/12/24 03:19:49;;;;;;;0.80;0.70;;;;;;;2.47;100.00;99078.67;177879;1259;46009;-69
2023/12/24 03:23:55;;;;;;;1.50;0.80;;;;;;;2.48;100.00;99072.27;177869;1262;45875;-73
2023/12/24 03:28:02;;;;;;;1.00;0.50;;;;;;;2.49;100.00;99070.98;178676;1261;58147;-68
2023/12/24 03:32:06;;;;;;;2.30;0.90;;;;;;;2.48;100.00;99073.34;179170;1260;46048;-68
2023/12/24 03:36:10;;;;;;;1.50;1.20;;;;;;;2.49;100.00;99070.84;179325;1262;45941;-69
2023/12/24 03:40:13;;;;;;;2.50;1.50;;;;;;;2.50;100.00;99067.05;179466;1261;46123;-71
2023/12/24 03:44:17;;;;;;;2.60;1.70;;;;;;;2.55;100.00;99066.03;179144;1260;44962;-70
2023/12/24 03:48:20;;;;;;;2.20;1.90;;;;;;;2.54;100.00;99065.86;179326;1260;60573;-71
2023/12/24 03:52:23;;;;;;;2.10;1.50;;;;;;;2.61;100.00;99065.65;179594;1261;46058;-74
2023/12/24 03:56:33;;;;;;;1.60;1.20;;;;;;;2.61;100.00;99058.98;179204;1261;45284;-75
2023/12/24 04:00:36;;;;;;;1.90;1.30;;;;;;;2.62;100.00;99058.56;179482;1259;45912;-78
2023/12/24 04:04:49;;;;;;;10.20;2.30;;;;;;;2.63;100.00;99056.71;179813;1260;43540;-75
2023/12/24 04:08:52;;;;;;;4.40;3.00;;;;;;;2.70;100.00;99057.85;180159;1259;58826;-73
2023/12/24 04:13:02;;;;;;;3.80;1.20;;;;;;;2.75;100.00;99054.67;180358;1261;45892;-75
2023/12/24 04:17:07;;;;;;;1.90;1.30;;;;;;;2.73;100.00;99059.73;180338;1261;43611;-73
2023/12/24 04:21:10;;;;;;;2.30;1.70;;;;;;;2.72;100.00;99060.11;180254;1262;45287;-70
2023/12/24 04:25:21;;;;;;;3.80;3.40;;;;;;;2.77;100.00;99057.38;180292;1259;46242;-73
2023/12/24 04:29:25;;;;;;;2.40;2.10;;;;;;;2.80;100.00;99058.88;180103;1260;58608;-70
2023/12/24 04:33:30;;;;;;;2.20;2.00;;;;;;;2.76;100.00;99047.61;179800;1261;46006;-68
2023/12/24 04:37:34;;;;;;;2.40;2.20;;;;;;;2.64;100.00;99037.21;180211;1261;43611;-71
2023/12/24 04:41:39;;;;;;;1.40;1.30;;;;;;;2.56;100.00;99026.73;180056;1261;45987;-68
2023/12/24 04:45:43;;;;;;;1.90;1.00;;;;;;;2.48;100.00;99020.61;180258;1262;44551;-69
2023/12/24 04:49:46;;;;;;;1.60;1.30;;;;;;;2.39;100.00;99016.70;180100;1262;59910;-67
2023/12/24 04:53:51;;;;;;;1.80;1.50;;;;;;;2.33;100.00;99015.34;180027;1262;43788;-67
2023/12/24 04:57:58;;;;;;;2.20;1.60;;;;;;;2.24;100.00;99014.52;180135;1261;45237;-67
2023/12/24 05:02:02;;;;;;;3.10;2.00;;;;;;;2.25;100.00;99020.60;180177;1264;44774;-66
2023/12/24 05:06:35;;;;;;;4.50;2.10;;;;;;;2.24;100.00;99017.51;180183;1260;44930;-67
2023/12/24 05:10:38;;;;;;;2.70;2.00;;;;;;;2.29;100.00;99018.05;180215;1261;58245;-67
2023/12/24 05:15:34;;;;;;;3.80;1.10;;;;;;;2.19;100.00;99009.45;180213;1259;46147;-65
2023/12/24 05:19:37;;;;;;;14.30;1.80;;;;;;;2.09;100.00;99030.40;180188;1260;44305;-67
2023/12/24 05:23:40;;;;;;;2.40;0.90;;;;;;;2.22;100.00;99032.17;180121;1261;43616;-67
2023/12/24 05:27:43;;;;;;;1.50;1.10;;;;;;;2.27;100.00;99017.50;180019;1260;44106;-66
2023/12/24 05:31:48;;;;;;;2.60;1.80;;;;;;;2.27;100.00;99020.11;180146;1259;58972;-66
2023/12/24 05:35:52;;;;;;;3.00;1.50;;;;;;;2.19;100.00;99023.96;180003;1262;46046;-66
2023/12/24 05:39:57;;;;;;;1.70;1.00;;;;;;;2.20;100.00;99016.90;180202;1260;43543;-66
2023/12/24 05:44:01;;;;;;;1.20;1.10;;;;;;;2.13;100.00;99015.77;180042;1260;44694;-66
2023/12/24 05:48:31;;;;;;;0.80;0.60;;;;;;;2.14;100.00;99010.33;179973;1262;46008;-65
2023/12/24 05:52:35;;;;;;;0.70;0.70;;;;;;;2.11;100.00;98990.55;180060;1260;59899;-64
2023/12/24 05:56:38;;;;;;;1.30;0.80;;;;;;;2.20;100.00;99010.84;179997;1259;44489;-63
2023/12/24 06:00:42;;;;;;;0.40;0.40;;;;;;;2.18;100.00;98998.73;180026;1261;43645;-64
2023/12/24 06:04:50;;;;;;;0.50;0.50;;;;;;;1.98;100.00;98992.51;179997;1261;44474;-65
2023/12/24 06:08:53;;;;;;;0.70;0.20;;;;;;;1.89;100.00;98996.59;180015;1259;43757;-64
2023/12/24 06:12:57;;;;;;;0.40;0.40;;;;;;;1.91;100.00;98976.20;179949;1260;58310;-67
2023/12/24 06:17:00;;;;;;;0.20;0.20;;;;;;;2.03;100.00;99004.23;179879;1262;44217;-63
2023/12/24 06:21:05;;;;;;;0.30;0.30;;;;;;;2.12;100.00;98994.73;180107;1261;45965;-61
2023/12/24 06:25:08;;;;;;;0.70;0.60;;;;;;;2.18;100.00;98986.78;180046;1262;46205;-62
2023/12/24 06:29:12;;;;;;;3.30;1.00;;;;;;;2.13;100.00;98976.79;180145;1259;43855;-61
2023/12/24 06:33:15;;;;;;;0.90;0.90;;;;;;;2.04;100.00;98973.39;180141;1260;58393;-61
2023/12/24 06:37:19;;;;;;;0.50;0.30;;;;;;;2.00;100.00;98970.48;180146;1261;46012;-61
2023/12/24 06:41:23;;;;;;;0.30;0.30;;;;;;;1.98;100.00;98963.14;180251;1262;46021;-61
2023/12/24 06:45:53;;;;;;;1.40;0.60;;;;;;;1.75;100.00;98957.96;180257;1260;43602;-61
2023/12/24 06:49:56;;;;;;;3.70;0.80;;;;;;;1.62;100.00;98959.39;180207;1262;46008;-60
2023/12/24 06:54:00;;;;;;;1.80;1.10;;;;;;;1.63;100.00;98954.54;180210;1259;58065;-60
2023/12/24 06:58:05;;;;;;;1.10;0.80;;;;;;;1.73;100.00;98963.36;180330;1260;46012;-61
2023/12/24 07:02:13;;;;;;;1.20;1.10;;;;;;;1.81;100.00;98967.05;180155;1261;43596;-60
2023/12/24 07:06:16;;;;;;;1.90;1.40;;;;;;;1.89;100.00;98963.19;180082;1261;43844;-61
2023/12/24 07:10:20;;;;;;;2.50;2.20;;;;;;;1.85;100.00;98954.39;180120;1260;43526;-61
2023/12/24 07:14:26;;;;;;;6.10;2.70;;;;;;;1.83;100.00;98957.66;180175;1261;58403;-61
2023/12/24 07:18:29;;;;;;;2.20;1.40;;;;;;;1.84;100.00;98954.05;180233;1261;43751;-60
2023/12/24 07:22:46;;;;;;;4.30;1.20;;;;;;;1.83;100.00;98953.60;180293;1260;46077;-60
2023/12/24 07:26:52;;;;;;;3.20;1.80;;;;;;;1.82;100.00;98952.41;180219;1260;43902;-59
2023/12/24 07:30:57;;;;;;;8.00;4.80;;;;;;;1.86;100.00;98953.98;180344;1259;44624;-59
2023/12/24 07:35:26;;;;;;;35.40;13.10;;;;;;;1.85;100.00;98949.13;180189;1259;59622;-60
2023/12/24 07:39:29;;;;;;;13.10;9.20;;;;;;;1.93;100.00;98958.70;180250;1260;45936;-60
2023/12/24 07:43:33;;;;;;;10.60;7.50;;;;;;;1.89;100.00;98963.71;179511;1259;87306;-86
2023/12/24 07:47:36;;;;;;;6.00;3.80;;;;;;;1.89;100.00;98952.17;178977;1259;46316;-83
2023/12/24 07:51:41;;;;;;;7.10;2.70;;;;;;;1.91;100.00;98949.40;179218;1259;45977;-85
2023/12/24 07:55:44;;;;;;;8.60;4.50;;;;;;;1.96;100.00;98942.80;178022;1259;59531;-89
2023/12/24 07:59:48;;;;;;;16.90;10.60;;;;;;;2.00;100.00;98941.86;178320;1264;45990;-87
2023/12/24 08:03:51;;;;;;;11.20;7.00;;;;;;;1.97;100.00;98936.98;178480;1259;46080;-86
2023/12/24 08:07:54;;;;;;;6.00;2.80;;;;;;;1.96;100.00;98937.00;178678;1259;46118;-87
2023/12/24 08:11:57;;;;;;;5.50;2.20;;;;;;;2.00;100.00;98932.56;178336;1259;45923;-86
2023/12/24 08:16:01;;;;;;;9.10;6.40;;;;;;;1.96;100.00;98929.28;178238;1259;185913;-83
2023/12/24 08:20:05;;;;;;;4.00;3.40;;;;;;;1.95;100.00;98921.48;178347;1259;45844;-86
2023/12/24 08:24:08;;;;;;;6.10;3.70;;;;;;;1.94;100.00;98918.63;178393;1259;44766;-86
2023/12/24 08:28:12;;;;;;;9.00;6.10;;;;;;;2.00;100.00;98921.73;179736;1259;46048;-86
2023/12/24 08:32:16;;;;;;;24.60;13.30;;;;;;;2.00;100.00;98917.90;179471;1259;46035;-85
2023/12/24 08:36:19;;;;;;;21.60;13.00;;;;;;;1.99;100.00;98915.52;179739;1262;59354;-86
2023/12/24 08:40:23;;;;;;;29.10;14.00;;;;;;;1.99;100.00;98912.34;179137;1263;46425;-85
2023/12/24 08:44:26;;;;;;;12.90;9.00;;;;;;;1.96;100.00;98913.61;179707;1259;45520;-83
2023/12/24 08:48:30;;;;;;;14.60;8.10;;;;;;;1.95;100.00;98913.65;180677;1259;44584;-84
2023/12/24 08:52:34;;;;;;;7.50;3.70;;;;;;;2.05;100.00;98910.91;180081;1259;45719;-87
2023/12/24 08:56:37;;;;;;;5.00;3.50;;;;;;;2.18;100.00;98903.20;178821;1263;58519;-88
2023/12/24 09:00:41;;;;;;;4.70;3.10;;;;;;;2.27;100.00;98892.96;178842;1259;45949;-86
2023/12/24 09:04:46;;;;;;;9.80;5.10;;;;;;;2.40;100.00;98894.65;180112;1261;46477;-87
2023/12/24 09:08:50;;;;;;;7.20;4.00;;;;;;;2.50;100.00;98895.70;180716;1259;44220;-86
2023/12/24 09:12:53;;;;;;;9.20;4.90;;;;;;;2.63;100.00;98895.02;180013;1259;44388;-88
2023/12/24 09:16:57;;;;;;;7.20;5.40;;;;;;;2.76;100.00;98890.77;180680;1260;59524;-86
2023/12/24 09:21:01;;;;;;;17.40;12.90;;;;;;;2.88;100.00;98889.51;180704;1259;45183;-87
2023/12/24 09:25:05;;;;;;;53.50;33.50;;;;;;;2.98;100.00;98883.88;180101;1259;46039;-88
2023/12/24 09:29:10;;;;;;;18.90;16.10;;;;;;;3.02;100.00;98882.75;179348;1259;46036;-85
2023/12/24 09:33:17;;;;;;;10.70;9.50;;;;;;;3.10;100.00;98879.05;180402;1259;44223;-88
2023/12/24 09:37:21;;;;;;;16.50;12.30;;;;;;;3.21;100.00;98873.48;180409;1259;59430;-83
2023/12/24 09:41:24;;;;;;;19.70;15.60;;;;;;;3.36;100.00;98866.30;179824;1259;44649;-87
2023/12/24 09:45:29;;;;;;;29.00;22.30;;;;;;;3.53;100.00;98869.91;180400;1259;44663;-81
2023/12/24 09:49:32;;;;;;;41.80;24.00;;;;;;;3.77;100.00;98861.79;180445;1259;45947;-88
2023/12/24 09:53:36;;;;;;;21.90;15.00;;;;;;;4.03;100.00;98867.52;180044;1261;44254;-88
2023/12/24 09:57:40;;;;;;;13.90;6.70;;;;;;;4.33;100.00;98870.89;179131;1260;59560;-87
2023/12/24 10:01:45;;;;;;;6.30;3.10;;;;;;;4.63;100.00;98866.89;179812;1259;44358;-84
2023/12/24 10:06:02;;;;;;;4.40;2.90;;;;;;;4.92;100.00;98862.54;179778;1261;46116;-87
2023/12/24 10:10:08;;;;;;;5.10;3.10;;;;;;;5.25;100.00;98858.64;180503;1263;44011;-86
2023/12/24 10:14:12;;;;;;;2.80;2.10;;;;;;;5.51;100.00;98848.42;180123;1260;44685;-80
2023/12/24 10:18:23;;;;;;;4.60;2.40;;;;;;;5.71;100.00;98843.02;180196;1259;89883;-59
2023/12/24 10:22:27;;;;;;;2.20;1.90;;;;;;;5.90;100.00;98836.38;178650;1260;46110;-87
2023/12/24 10:26:30;;;;;;;6.80;2.90;;;;;;;6.07;100.00;98831.02;179645;1259;44322;-86
2023/12/24 10:30:35;;;;;;;6.50;2.90;;;;;;;6.20;100.00;98821.69;179258;1259;45923;-85
2023/12/24 10:34:39;;;;;;;4.10;2.40;;;;;;;6.30;100.00;98827.27;178655;1260;46015;-84
2023/12/24 10:38:44;;;;;;;2.90;1.70;;;;;;;6.41;100.00;98818.92;178727;1259;60386;-87
2023/12/24 10:42:47;;;;;;;3.10;1.10;;;;;;;6.50;100.00;98814.10;179188;1259;46008;-85
2023/12/24 10:46:51;;;;;;;1.10;1.00;;;;;;;6.62;100.00;98815.34;178904;1259;44289;-86
2023/12/24 10:51:16;;;;;;;2.60;1.00;;;;;;;6.73;100.00;98802.29;178554;1259;46006;-85
2023/12/24 10:55:47;;;;;;;1.50;1.40;;;;;;;6.85;100.00;98791.98;178366;1259;44336;-88
2023/12/24 11:09:44;;;;;;;1.20;1.10;;;;;;;7.39;100.00;98774.45;179676;1264;90904;-62
2023/12/24 11:13:51;;;;;;;4.00;1.20;;;;;;;7.60;100.00;98772.86;179742;1266;43635;-60
2023/12/24 11:17:55;;;;;;;2.20;1.30;;;;;;;7.79;100.00;98763.83;179270;1268;45910;-61
2023/12/24 11:22:17;;;;;;;1.80;1.30;;;;;;;8.03;100.00;98756.27;179495;1267;59084;-61
2023/12/24 11:26:32;;;;;;;4.00;1.40;;;;;;;8.27;100.00;98753.11;178764;1266;89953;-85
2023/12/24 11:31:06;;;;;;;4.10;0.70;;;;;;;8.51;100.00;98743.08;177710;1265;45844;-88
2023/12/24 11:35:52;;;;;;;2.70;1.30;;;;;;;8.71;100.00;98740.65;178536;1266;44726;-88
2023/12/24 11:40:12;;;;;;;1.90;1.10;;;;;;;8.87;100.00;98729.15;178060;1267;44342;-87
2023/12/24 11:44:15;;;;;;;1.40;1.10;;;;;;;9.04;100.00;98722.17;178682;1267;59513;-85
2023/12/24 11:48:19;;;;;;;2.50;1.20;;;;;;;9.16;100.00;98716.19;178322;1267;44289;-88
2023/12/24 11:52:23;;;;;;;1.70;1.00;;;;;;;9.27;100.00;98717.16;179932;1266;43947;-87
2023/12/24 11:56:28;;;;;;;3.60;1.60;;;;;;;9.36;100.00;98715.30;178696;1268;44158;-86
2023/12/24 12:00:32;;;;;;;3.50;2.00;;;;;;;9.42;100.00;98700.48;179281;1266;46184;-86
2023/12/24 12:04:35;;;;;;;2.00;0.90;;;;;;;9.51;100.00;98700.27;178674;1266;59518;-87
2023/12/24 12:08:39;;;;;;;1.90;0.80;;;;;;;9.57;100.00;98698.58;178136;1267;46127;-87
2023/12/24 12:12:42;;;;;;;1.30;1.20;;;;;;;9.70;100.00;98697.31;179041;1266;46068;-85
2023/12/24 12:16:45;;;;;;;2.20;1.30;;;;;;;9.75;100.00;98696.77;179680;1266;45241;-84
2023/12/24 12:20:49;;;;;;;1.60;1.50;;;;;;;9.81;100.00;98699.27;178813;1267;43992;-84
2023/12/24 12:24:52;;;;;;;1.40;1.20;;;;;;;9.85;100.00;98689.67;178252;1266;59226;-85
2023/12/24 12:28:55;;;;;;;1.70;1.30;;;;;;;9.94;100.00;98679.83;178436;1267;46006;-85
2023/12/24 12:33:00;;;;;;;2.30;1.70;;;;;;;10.00;100.00;98683.06;179136;1267;46626;-84
2023/12/24 12:37:04;;;;;;;1.80;1.60;;;;;;;10.07;100.00;98685.67;178910;1266;44089;-84
2023/12/24 12:41:07;;;;;;;1.20;0.80;;;;;;;10.11;100.00;98679.88;178569;1265;45022;-85
2023/12/24 12:45:12;;;;;;;1.60;1.20;;;;;;;10.16;100.00;98691.14;179215;1266;60761;-86
2023/12/24 12:49:15;;;;;;;1.00;0.80;;;;;;;10.12;100.00;98689.89;179372;1266;45995;-83
2023/12/24 12:53:25;;;;;;;6.10;1.80;;;;;;;10.14;100.00;98696.94;178896;1267;46363;-83
2023/12/24 12:57:32;;;;;;;0.90;0.50;;;;;;;10.19;100.00;98689.37;179326;1265;44680;-87
2023/12/24 13:01:39;;;;;;;2.60;1.20;;;;;;;10.19;100.00;98692.34;178455;1269;44260;-88
2023/12/24 13:05:43;;;;;;;1.60;0.90;;;;;;;10.21;100.00;98684.89;178707;1269;59560;-85
2023/12/24 13:09:49;;;;;;;2.40;1.00;;;;;;;10.22;100.00;98680.00;178728;1265;44140;-85
2023/12/24 13:14:05;;;;;;;0.80;0.70;;;;;;;10.22;100.00;98669.94;177875;1266;46136;-87
2023/12/24 13:18:26;;;;;;;1.30;0.70;;;;;;;10.25;100.00;98682.95;178333;1267;46350;-85
2023/12/24 13:22:31;;;;;;;1.40;0.90;;;;;;;10.25;100.00;98687.90;178535;1267;45953;-83
2023/12/24 13:26:34;;;;;;;2.10;0.90;;;;;;;10.22;100.00;98691.39;179336;1266;59582;-86
2023/12/24 13:30:38;;;;;;;2.70;0.70;;;;;;;10.19;100.00;98696.46;177268;1268;46270;-88
2023/12/24 13:34:42;;;;;;;2.00;1.20;;;;;;;10.19;100.00;98697.16;177988;1266;45991;-88
2023/12/24 13:38:46;;;;;;;3.70;1.10;;;;;;;10.21;100.00;98702.22;178360;1267;44659;-84
2023/12/24 13:42:50;;;;;;;1.20;0.60;;;;;;;10.19;100.00;98709.42;178661;1267;44120;-87
2023/12/24 13:46:53;;;;;;;1.20;0.70;;;;;;;10.13;100.00;98710.51;179417;1267;60837;-86
2023/12/24 13:50:57;;;;;;;1.20;0.80;;;;;;;10.13;100.00;98709.77;179070;1268;45992;-85
2023/12/24 13:55:00;;;;;;;2.10;1.20;;;;;;;10.13;100.00;98703.34;178926;1267;46257;-87
2023/12/24 13:59:04;;;;;;;1.80;1.20;;;;;;;10.13;100.00;98692.11;180230;1267;44172;-84
2023/12/24 14:03:09;;;;;;;1.80;0.80;;;;;;;10.15;100.00;98695.59;179283;1267;44357;-87
2023/12/24 14:07:12;;;;;;;2.90;1.90;;;;;;;10.17;100.00;98694.60;179153;1267;58041;-89
2023/12/24 14:11:27;;;;;;;2.50;0.60;;;;;;;10.20;100.00;98695.09;179117;1266;46133;-88
2023/12/24 14:15:31;;;;;;;2.50;1.30;;;;;;;10.22;100.00;98690.46;178748;1266;44119;-89
2023/12/24 14:19:35;;;;;;;0.80;0.50;;;;;;;10.23;100.00;98688.25;179177;1266;44076;-89
2023/12/24 14:23:38;;;;;;;2.50;1.00;;;;;;;10.28;100.00;98699.62;178769;1267;46096;-86
2023/12/24 14:27:42;;;;;;;0.70;0.60;;;;;;;10.27;100.00;98687.63;179111;1268;57183;-86
2023/12/24 14:31:45;;;;;;;2.10;1.10;;;;;;;10.29;100.00;98686.76;179012;1268;44430;-88
2023/12/24 14:35:48;;;;;;;0.70;0.50;;;;;;;10.28;100.00;98677.33;178649;1268;44429;-84
2023/12/24 14:39:52;;;;;;;0.80;0.50;;;;;;;10.29;100.00;98672.94;178759;1268;44082;-86
2023/12/24 14:43:55;;;;;;;1.30;0.80;;;;;;;10.27;100.00;98676.63;178386;1268;46005;-87
2023/12/24 14:47:58;;;;;;;1.00;0.80;;;;;;;10.26;100.00;98686.89;178842;1268;58233;-88
2023/12/24 14:52:02;;;;;;;1.30;0.70;;;;;;;10.24;100.00;98684.10;178601;1268;43901;-85
2023/12/24 14:56:11;;;;;;;1.40;0.50;;;;;;;10.26;100.00;98676.59;178474;1268;46177;-84
2023/12/24 15:00:15;;;;;;;2.70;0.60;;;;;;;10.28;100.00;98665.43;178691;1268;46049;-86
2023/12/24 15:04:18;;;;;;;1.10;0.70;;;;;;;10.32;100.00;98661.48;177853;1268;46119;-86
2023/12/24 15:08:22;;;;;;;1.00;0.60;;;;;;;10.34;100.00;98662.64;178362;1270;59612;-85
2023/12/24 15:12:25;;;;;;;0.80;0.80;;;;;;;10.34;100.00;98655.58;178084;1268;44502;-85
2023/12/24 15:16:29;;;;;;;2.30;0.50;;;;;;;10.38;100.00;98656.40;178649;1268;45893;-87
2023/12/24 15:20:32;;;;;;;2.40;0.60;;;;;;;10.41;100.00;98648.07;178785;1268;44059;-86
2023/12/24 15:24:36;;;;;;;2.80;0.80;;;;;;;10.47;100.00;98647.15;178999;1268;46137;-84
2023/12/24 15:28:39;;;;;;;0.50;0.30;;;;;;;10.49;100.00;98648.13;177483;1267;59617;-87
2023/12/24 15:32:44;;;;;;;3.20;1.00;;;;;;;10.52;100.00;98649.40;178311;1266;46005;-86
2023/12/24 15:36:48;;;;;;;1.00;0.80;;;;;;;10.55;100.00;98645.71;177983;1267;46132;-88
2023/12/24 15:40:51;;;;;;;0.80;0.60;;;;;;;10.58;100.00;98646.84;179306;1266;45905;-87
2023/12/24 15:44:55;;;;;;;0.90;0.70;;;;;;;10.64;100.00;98658.11;179006;1267;46010;-86
2023/12/24 15:48:58;;;;;;;3.30;1.20;;;;;;;10.65;100.00;98646.21;178808;1267;58568;-88
2023/12/24 15:53:03;;;;;;;1.60;0.40;;;;;;;10.65;100.00;98644.65;178798;1267;43909;-87
2023/12/24 15:57:08;;;;;;;1.30;1.20;;;;;;;10.73;100.00;98638.33;178605;1267;46166;-86
2023/12/24 16:01:12;;;;;;;1.70;0.90;;;;;;;10.81;100.00;98646.54;178410;1268;45928;-87
2023/12/24 16:05:16;;;;;;;2.90;1.30;;;;;;;10.81;100.00;98653.78;178596;1267;46102;-85
2023/12/24 16:09:19;;;;;;;1.40;1.00;;;;;;;10.87;100.00;98645.17;178825;1268;58371;-83
2023/12/24 16:13:23;;;;;;;1.80;1.00;;;;;;;10.88;100.00;98647.73;178433;1266;44198;-85
2023/12/24 16:17:27;;;;;;;0.60;0.50;;;;;;;10.91;100.00;98639.05;178731;1267;44595;-84
2023/12/24 16:21:31;;;;;;;0.80;0.60;;;;;;;10.96;100.00;98645.88;178031;1267;46636;-85
2023/12/24 16:25:39;;;;;;;1.30;0.80;;;;;;;10.96;100.00;98640.36;176994;1268;46012;-86
2023/12/24 16:29:43;;;;;;;0.50;0.30;;;;;;;10.98;100.00;98629.05;177643;1267;58173;-85
2023/12/24 16:33:46;;;;;;;0.80;0.50;;;;;;;11.03;100.00;98639.53;176686;1268;46024;-84
2023/12/24 16:37:50;;;;;;;0.60;0.30;;;;;;;11.04;100.00;98636.52;177228;1270;46134;-86
2023/12/24 16:41:53;;;;;;;0.50;0.50;;;;;;;11.08;100.00;98630.61;177980;1267;45940;-85
2023/12/24 16:45:57;;;;;;;1.00;0.80;;;;;;;11.14;100.00;98633.67;177183;1267;46021;-85
2023/12/24 16:50:00;;;;;;;0.40;0.30;;;;;;;11.16;100.00;98630.94;178486;1267;59089;-86
2023/12/24 16:54:04;;;;;;;0.80;0.50;;;;;;;11.14;100.00;98630.35;177581;1268;46015;-86
2023/12/24 16:58:07;;;;;;;0.40;0.30;;;;;;;11.15;100.00;98619.70;177701;1267;44160;-84
2023/12/24 17:02:10;;;;;;;0.80;0.80;;;;;;;11.10;100.00;98620.45;178935;1267;44097;-86
2023/12/24 17:06:14;;;;;;;0.70;0.60;;;;;;;11.10;100.00;98628.67;177646;1267;44090;-84
2023/12/24 17:10:18;;;;;;;0.80;0.50;;;;;;;11.05;100.00;98627.26;178276;1267;57865;-85
2023/12/24 17:14:22;;;;;;;0.80;0.60;;;;;;;10.99;100.00;98626.75;178166;1267;44719;-85
2023/12/24 17:18:25;;;;;;;1.00;0.30;;;;;;;10.96;100.00;98635.94;179805;1270;44113;-85
2023/12/24 17:22:29;;;;;;;0.80;0.40;;;;;;;10.97;100.00;98631.95;178895;1268;45958;-85
2023/12/24 17:26:32;;;;;;;1.20;0.70;;;;;;;10.93;100.00;98622.98;178151;1267;44117;-85
2023/12/24 17:30:36;;;;;;;1.30;0.60;;;;;;;10.92;100.00;98606.13;179164;1267;59000;-83
2023/12/24 17:34:39;;;;;;;0.40;0.20;;;;;;;10.91;100.00;98594.16;178677;1267;44137;-84
2023/12/24 17:38:43;;;;;;;0.70;0.70;;;;;;;10.94;100.00;98591.86;178721;1266;46056;-85
2023/12/24 17:42:48;;;;;;;0.40;0.20;;;;;;;10.99;100.00;98585.16;178748;1267;45841;-84
2023/12/24 17:46:52;;;;;;;4.60;1.60;;;;;;;11.03;100.00;98593.64;178864;1267;46115;-85
2023/12/24 17:50:56;;;;;;;0.30;0.30;;;;;;;11.06;100.00;98591.30;179551;1264;92638;-62
2023/12/24 17:54:59;;;;;;;1.50;0.50;;;;;;;11.14;100.00;98592.16;179725;1264;44614;-62
2023/12/24 17:59:03;;;;;;;0.50;0.40;;;;;;;11.21;100.00;98596.36;179727;1264;43875;-62
2023/12/24 18:03:07;;;;;;;1.40;0.40;;;;;;;11.24;100.00;98590.70;179926;1265;43656;-62
2023/12/24 18:07:18;;;;;;;1.20;0.80;;;;;;;11.32;100.00;98584.21;179700;1268;44665;-62
2023/12/24 18:11:22;;;;;;;0.20;0.10;;;;;;;11.36;100.00;98567.20;179560;1264;58024;-62
2023/12/24 18:15:51;;;;;;;0.70;0.20;;;;;;;11.39;100.00;98554.80;179675;1264;44725;-63
2023/12/24 18:19:55;;;;;;;0.60;0.50;;;;;;;11.41;100.00;98546.05;179540;1264;44170;-62
2023/12/24 18:23:58;;;;;;;0.50;0.30;;;;;;;11.44;100.00;98553.48;179668;1264;43802;-62
2023/12/24 18:28:02;;;;;;;0.40;0.40;;;;;;;11.47;100.00;98555.33;179558;1265;43517;-63
2023/12/24 18:32:06;;;;;;;1.00;0.30;;;;;;;11.51;100.00;98549.33;179693;1266;57448;-63
2023/12/24 18:36:17;;;;;;;0.40;0.20;;;;;;;11.55;100.00;98558.45;179559;1264;43712;-63
2023/12/24 18:40:39;;;;;;;0.60;0.50;;;;;;;11.62;100.00;98552.77;179603;1265;43665;-63
2023/12/24 18:44:43;;;;;;;0.70;0.30;;;;;;;11.64;100.00;98538.73;179459;1264;45945;-63
2023/12/24 18:48:47;;;;;;;1.00;0.60;;;;;;;11.72;100.00;98535.98;179603;1264;44426;-63
2023/12/24 18:52:51;;;;;;;1.00;0.20;;;;;;;11.75;100.00;98536.07;179555;1266;57674;-63
2023/12/24 18:57:01;;;;;;;1.10;0.60;;;;;;;11.81;100.00;98530.02;179389;1264;46199;-63
2023/12/24 19:01:04;;;;;;;0.60;0.50;;;;;;;11.85;100.00;98509.52;179555;1264;45316;-63
2023/12/24 19:05:07;;;;;;;0.90;0.50;;;;;;;11.94;100.00;98515.23;179424;1264;45951;-63
2023/12/24 19:09:13;;;;;;;0.10;0.10;;;;;;;12.00;100.00;98506.13;179793;1265;43805;-63
2023/12/24 19:13:16;;;;;;;0.50;0.40;;;;;;;12.04;100.00;98496.45;179921;1265;58205;-63
2023/12/24 19:17:20;;;;;;;0.60;0.20;;;;;;;12.09;100.00;98494.35;179719;1265;44675;-64
2023/12/24 19:21:28;;;;;;;0.30;0.20;;;;;;;12.13;100.00;98482.45;179453;1266;45038;-63